Time;durP1;ratioP1;P1;durP2;ratioP2;P2;SDS_P1;SDS_P2;PMS_P1;PMS_P2;Temp;Humidity;BMP_temperature;BMP_pressure;BME280_temperature;BME280_humidity;BME280_pressure;Samples;Min_cycle;Max_cycle;Signal;HPM_P1;HPM_P2
2022/08/16 04:16:13;;;;;;;31.42;28.13;;;16.80;99.90;;;;;;5683398;23;20503;-81
2022/08/16 04:18:41;;;;;;;31.25;28.15;;;16.80;99.90;;;;;;4900313;29;20050;-81
2022/08/16 04:21:07;;;;;;;30.33;27.25;;;16.80;99.90;;;;;;4918324;29;20067;-81
2022/08/16 04:23:33;;;;;;;31.35;28.27;;;16.70;99.90;;;;;;4916703;29;20130;-81
2022/08/16 04:25:59;;;;;;;29.88;26.77;;;16.80;99.90;;;;;;4909382;29;20127;-81
2022/08/16 04:28:25;;;;;;;29.63;26.73;;;16.70;99.90;;;;;;4902528;29;20397;-81
2022/08/16 06:45:10;;;;;;;25.85;23.25;;;19.10;99.90;;;;;;4932796;29;20500;-80
2022/08/16 06:47:35;;;;;;;26.25;23.73;;;19.20;99.90;;;;;;4914136;29;20041;-80
2022/08/16 06:50:01;;;;;;;24.83;22.45;;;19.40;99.90;;;;;;4934695;29;20050;-80
2022/08/16 06:52:35;;;;;;;24.60;22.15;;;19.60;99.90;;;;;;4934825;29;20047;-80
2022/08/16 06:55:05;;;;;;;26.48;23.70;;;19.70;99.90;;;;;;4934664;29;20043;-80
2022/08/16 06:57:30;;;;;;;26.02;23.55;;;19.90;99.90;;;;;;4954066;23;20040;-78
2022/08/16 06:59:56;;;;;;;26.05;23.35;;;20.10;99.90;;;;;;4917187;29;20127;-78
2022/08/16 07:02:22;;;;;;;26.98;24.27;;;20.30;99.90;;;;;;4917863;29;20095;-79
2022/08/16 07:04:47;;;;;;;26.05;23.55;;;20.40;99.90;;;;;;4916830;29;20043;-79
2022/08/16 07:07:13;;;;;;;24.40;22.05;;;20.50;99.90;;;;;;4905681;29;20039;-76
2022/08/16 07:09:38;;;;;;;26.88;24.05;;;20.70;99.90;;;;;;4915263;29;20079;-80
2022/08/16 07:12:05;;;;;;;25.40;22.92;;;20.70;99.90;;;;;;4902095;29;20047;-81
2022/08/16 07:14:31;;;;;;;25.40;22.38;;;20.80;99.90;;;;;;4924922;29;20032;-79
2022/08/16 07:16:57;;;;;;;26.15;23.63;;;20.80;99.90;;;;;;4922538;29;20444;-80
2022/08/16 07:19:23;;;;;;;26.42;23.83;;;20.80;99.90;;;;;;4907275;29;20044;-79
2022/08/16 07:21:49;;;;;;;26.38;23.75;;;20.90;99.90;;;;;;4899793;29;20054;-78
2022/08/16 07:24:16;;;;;;;26.10;23.52;;;21.00;99.90;;;;;;4925477;29;20071;-77
2022/08/16 07:26:43;;;;;;;26.90;24.17;;;21.10;99.90;;;;;;4923567;29;20043;-77
2022/08/16 07:29:09;;;;;;;26.95;24.35;;;21.10;99.90;;;;;;4913050;29;20036;-77
2022/08/16 07:31:34;;;;;;;28.00;25.20;;;21.20;99.90;;;;;;4926131;29;20419;-77
2022/08/16 07:34:00;;;;;;;28.13;25.48;;;21.20;99.90;;;;;;4926825;29;20428;-77
2022/08/16 07:36:26;;;;;;;27.95;25.35;;;21.30;99.90;;;;;;4934031;29;20043;-79
2022/08/16 07:38:52;;;;;;;27.95;25.25;;;21.30;99.90;;;;;;4913691;29;20044;-78
2022/08/16 07:41:18;;;;;;;29.63;26.60;;;21.40;99.90;;;;;;4899200;29;20079;-78
2022/08/16 07:43:44;;;;;;;30.83;27.73;;;21.50;99.90;;;;;;4914839;29;20505;-78
2022/08/16 07:46:10;;;;;;;29.83;26.95;;;21.60;99.90;;;;;;4911557;29;20051;-77
2022/08/16 07:48:36;;;;;;;30.40;27.20;;;21.60;99.90;;;;;;4922473;29;20048;-77
2022/08/16 07:51:02;;;;;;;30.48;27.27;;;21.70;99.90;;;;;;4918960;29;20028;-78
2022/08/16 07:53:29;;;;;;;29.80;26.90;;;21.80;99.90;;;;;;4898956;29;20051;-77
2022/08/16 07:55:56;;;;;;;29.10;26.23;;;21.80;99.90;;;;;;4919618;29;20489;-78
2022/08/16 07:58:21;;;;;;;29.15;26.42;;;21.90;99.90;;;;;;4928467;29;20036;-79
2022/08/16 08:00:47;;;;;;;26.88;24.27;;;22.00;99.90;;;;;;4921832;29;20043;-78
2022/08/16 08:03:12;;;;;;;26.90;24.35;;;22.00;99.90;;;;;;4917202;29;20036;-78
2022/08/16 08:05:39;;;;;;;26.08;23.27;;;22.00;99.90;;;;;;4920325;29;20127;-77
2022/08/16 08:08:05;;;;;;;25.98;23.48;;;22.00;99.90;;;;;;4914917;29;20055;-77
2022/08/16 08:10:31;;;;;;;26.75;24.17;;;22.10;99.90;;;;;;4900445;29;20051;-77
2022/08/16 08:12:56;;;;;;;26.70;24.10;;;22.20;99.90;;;;;;4926478;29;20555;-78
2022/08/16 08:15:23;;;;;;;29.05;26.08;;;22.30;99.90;;;;;;4908932;29;20083;-78
2022/08/16 08:17:49;;;;;;;26.25;23.70;;;22.40;99.90;;;;;;4903673;29;20731;-78
2022/08/16 08:20:17;;;;;;;25.98;23.48;;;22.50;99.90;;;;;;4923623;29;20055;-78
2022/08/16 08:22:45;;;;;;;24.52;22.13;;;22.70;99.90;;;;;;4906144;29;20053;-78
2022/08/16 08:25:12;;;;;;;21.42;19.33;;;22.80;99.90;;;;;;4912477;29;20047;-78
2022/08/16 08:27:38;;;;;;;19.05;17.23;;;23.10;99.90;;;;;;4913235;29;20039;-78
2022/08/16 08:30:04;;;;;;;16.00;14.50;;;23.50;99.90;;;;;;4913785;29;20060;-79
2022/08/16 08:32:30;;;;;;;15.73;14.23;;;24.20;99.90;;;;;;4922042;29;20046;-79
2022/08/16 08:34:57;;;;;;;15.00;13.55;;;24.90;99.90;;;;;;4907652;29;20078;-79
2022/08/16 08:37:24;;;;;;;15.82;12.95;;;25.60;99.90;;;;;;4902562;29;20401;-79
2022/08/16 08:39:50;;;;;;;15.55;13.52;;;26.30;99.90;;;;;;4918178;29;20036;-79
2022/08/16 08:42:16;;;;;;;15.80;13.98;;;26.90;99.90;;;;;;4901671;29;20047;-79
2022/08/16 08:44:41;;;;;;;15.80;14.30;;;27.30;99.90;;;;;;4937499;29;20106;-79
2022/08/16 08:47:07;;;;;;;14.82;13.40;;;27.90;99.90;;;;;;4919125;29;20087;-79
2022/08/16 08:49:34;;;;;;;15.32;13.77;;;28.40;99.90;;;;;;4928701;29;20032;-79
2022/08/16 08:52:00;;;;;;;14.77;13.07;;;28.70;99.90;;;;;;4907996;29;20036;-78
2022/08/16 08:54:26;;;;;;;15.88;14.10;;;28.90;99.90;;;;;;4924880;29;20167;-78
2022/08/16 08:56:52;;;;;;;13.98;12.68;;;29.20;98.90;;;;;;4925492;29;20054;-78
2022/08/16 08:59:18;;;;;;;13.52;12.23;;;29.50;95.90;;;;;;4917532;29;20046;-78
2022/08/16 09:01:46;;;;;;;13.07;11.73;;;29.70;94.10;;;;;;4916173;29;20455;-78
2022/08/16 09:04:12;;;;;;;13.20;11.93;;;30.00;92.60;;;;;;4912786;29;20044;-78
2022/08/16 09:06:37;;;;;;;13.57;12.38;;;30.40;91.40;;;;;;4915534;29;20036;-78
2022/08/16 09:09:04;;;;;;;13.05;11.85;;;30.50;87.20;;;;;;4929024;29;20425;-78
2022/08/16 09:11:31;;;;;;;11.77;10.68;;;30.60;85.10;;;;;;4931856;29;20036;-78
2022/08/16 09:13:56;;;;;;;11.88;9.20;;;30.80;84.80;;;;;;4916643;29;20511;-78
2022/08/16 09:16:22;;;;;;;9.85;8.75;;;31.00;82.30;;;;;;4919246;29;20075;-78
2022/08/16 09:18:48;;;;;;;9.30;7.90;;;31.00;78.30;;;;;;4920080;29;20389;-79
2022/08/16 09:21:14;;;;;;;7.95;7.13;;;30.90;75.90;;;;;;4912276;29;20046;-78
2022/08/16 09:23:40;;;;;;;8.77;7.78;;;30.80;76.30;;;;;;4916235;29;20032;-78
2022/08/16 09:26:09;;;;;;;8.80;7.90;;;30.80;75.10;;;;;;4915314;29;20042;-78
2022/08/16 09:28:36;;;;;;;9.63;8.73;;;30.80;75.40;;;;;;4917353;29;20086;-78
2022/08/16 09:31:03;;;;;;;9.93;8.93;;;31.00;74.00;;;;;;4919311;29;20039;-78
2022/08/16 09:33:29;;;;;;;8.95;8.05;;;31.20;74.60;;;;;;4915440;29;20046;-78
2022/08/16 09:35:55;;;;;;;9.98;8.98;;;31.30;73.70;;;;;;4945198;29;20032;-78
2022/08/16 09:38:23;;;;;;;9.60;8.77;;;31.40;73.50;;;;;;4912675;29;20032;-78
2022/08/16 09:40:49;;;;;;;7.88;7.18;;;31.40;72.50;;;;;;4895180;29;20075;-79
2022/08/16 09:43:17;;;;;;;7.50;6.82;;;31.50;72.40;;;;;;4911375;29;20040;-79
2022/08/16 09:45:43;;;;;;;10.13;7.30;;;31.50;71.40;;;;;;4901868;29;20542;-78
2022/08/16 09:48:11;;;;;;;7.45;6.75;;;31.70;71.10;;;;;;4914210;29;20153;-78
2022/08/16 09:50:37;;;;;;;6.93;6.32;;;31.90;70.30;;;;;;4918912;29;20076;-78
2022/08/16 09:53:04;;;;;;;7.15;6.28;;;32.00;69.40;;;;;;4911277;29;20122;-78
2022/08/16 09:55:30;;;;;;;7.18;6.47;;;32.00;68.80;;;;;;4911096;29;20409;-78
2022/08/16 09:57:56;;;;;;;7.60;6.40;;;32.10;67.60;;;;;;4917175;29;20062;-79
2022/08/16 10:00:23;;;;;;;6.47;5.80;;;32.00;66.50;;;;;;4911650;29;20558;-78
2022/08/16 10:02:51;;;;;;;10.00;7.15;;;32.10;66.70;;;;;;4923535;29;20048;-78
2022/08/16 10:05:18;;;;;;;8.13;6.68;;;32.20;65.50;;;;;;4924687;29;20424;-78
2022/08/16 10:07:46;;;;;;;8.18;6.25;;;32.30;65.90;;;;;;4925984;29;20040;-77
2022/08/16 10:10:13;;;;;;;8.25;6.78;;;32.40;66.20;;;;;;4926302;29;20043;-78
2022/08/16 10:15:27;;;;;;;5.70;5.20;;;32.50;63.70;;;;;;4915645;29;20417;-77
2022/08/16 10:17:54;;;;;;;7.15;6.03;;;32.50;63.80;;;;;;4910762;29;20071;-77
2022/08/16 10:20:20;;;;;;;5.45;4.95;;;32.50;63.80;;;;;;4908063;29;20043;-78
2022/08/16 10:22:46;;;;;;;6.65;6.05;;;32.50;63.20;;;;;;4932797;29;20044;-77
2022/08/16 10:25:12;;;;;;;6.70;6.10;;;32.40;63.40;;;;;;4912121;29;20040;-78
2022/08/16 10:27:38;;;;;;;6.18;5.57;;;32.40;62.30;;;;;;4932416;29;20047;-78
2022/08/16 10:30:06;;;;;;;5.90;4.82;;;32.30;61.40;;;;;;4935092;29;20127;-78
2022/08/16 10:32:32;;;;;;;6.95;6.28;;;32.30;62.90;;;;;;4950982;28;20071;-77
2022/08/16 10:34:59;;;;;;;6.95;5.55;;;32.50;63.40;;;;;;4945217;29;20114;-79
2022/08/16 10:37:25;;;;;;;7.68;6.10;;;32.70;63.10;;;;;;4924416;29;20052;-78
2022/08/16 10:39:51;;;;;;;7.68;5.93;;;32.90;62.50;;;;;;4899415;29;20100;-77
2022/08/16 10:42:17;;;;;;;8.90;5.90;;;33.10;61.80;;;;;;4915784;29;20032;-77
2022/08/16 10:44:43;;;;;;;6.30;5.70;;;33.20;62.20;;;;;;4916045;29;20658;-77
2022/08/16 10:47:10;;;;;;;6.75;6.15;;;33.40;62.80;;;;;;4918419;29;20032;-77
2022/08/16 10:49:35;;;;;;;7.03;5.85;;;33.60;61.10;;;;;;4921557;29;20043;-76
2022/08/16 10:52:03;;;;;;;6.10;5.50;;;33.80;60.50;;;;;;4913800;29;20040;-77
2022/08/16 10:54:29;;;;;;;6.53;5.75;;;33.90;60.50;;;;;;4918866;29;20488;-75
2022/08/16 10:56:56;;;;;;;7.07;6.38;;;34.10;59.10;;;;;;4923095;29;20173;-76
2022/08/16 10:59:21;;;;;;;6.55;5.07;;;34.10;59.60;;;;;;4914387;29;20095;-76
2022/08/16 11:01:47;;;;;;;6.00;5.50;;;34.10;59.30;;;;;;4917228;29;20500;-76
2022/08/16 11:04:13;;;;;;;5.90;5.30;;;34.20;59.30;;;;;;4919612;29;20040;-76
2022/08/16 11:06:39;;;;;;;5.70;5.20;;;34.30;58.80;;;;;;4923198;29;20091;-79
2022/08/16 11:09:05;;;;;;;5.55;4.45;;;34.30;58.30;;;;;;4915406;29;20044;-80
2022/08/16 11:11:30;;;;;;;4.60;4.20;;;34.40;58.10;;;;;;4915559;29;20039;-77
2022/08/16 11:13:56;;;;;;;5.18;4.68;;;34.50;57.70;;;;;;4909089;29;20028;-78
2022/08/16 11:16:22;;;;;;;6.38;4.05;;;34.50;57.00;;;;;;4911592;29;20477;-78
2022/08/16 11:18:48;;;;;;;3.70;3.40;;;34.50;56.70;;;;;;4904682;29;20412;-76
2022/08/16 11:21:14;;;;;;;4.25;3.83;;;34.50;56.30;;;;;;4917885;29;20106;-76
2022/08/16 11:23:40;;;;;;;3.95;3.10;;;34.60;57.20;;;;;;4911301;29;20052;-76
2022/08/16 11:26:07;;;;;;;4.65;3.78;;;34.70;57.30;;;;;;4919601;29;20048;-76
2022/08/16 11:28:34;;;;;;;4.55;3.13;;;34.70;56.30;;;;;;4909183;29;20044;-76
2022/08/16 11:31:00;;;;;;;3.95;3.22;;;34.70;55.90;;;;;;4919106;29;20047;-76
2022/08/16 11:33:26;;;;;;;3.88;3.50;;;34.80;55.80;;;;;;4919069;29;20040;-76
2022/08/16 11:35:52;;;;;;;3.17;2.88;;;34.80;55.30;;;;;;4923142;29;20514;-76
2022/08/16 11:38:20;;;;;;;4.28;3.05;;;34.70;54.70;;;;;;4922567;29;20405;-76
2022/08/16 11:40:49;;;;;;;3.15;2.80;;;34.70;54.40;;;;;;4930470;29;20476;-76
2022/08/16 11:43:26;;;;;;;3.17;2.88;;;34.80;54.90;;;;;;4923477;29;20040;-76
2022/08/16 11:45:53;;;;;;;4.93;2.80;;;34.80;53.80;;;;;;4922460;29;20044;-76
2022/08/16 11:48:19;;;;;;;4.43;2.92;;;35.00;54.60;;;;;;4914348;29;20036;-76
2022/08/16 11:50:46;;;;;;;3.97;2.60;;;35.00;53.50;;;;;;4914650;29;20110;-76
2022/08/16 11:53:13;;;;;;;4.18;2.90;;;35.00;53.60;;;;;;4902173;29;20048;-76
2022/08/16 11:55:40;;;;;;;6.10;3.50;;;35.00;52.90;;;;;;4926926;29;20047;-76
2022/08/16 11:58:07;;;;;;;8.40;3.70;;;35.10;52.90;;;;;;4920626;29;20543;-76
2022/08/16 12:00:34;;;;;;;4.40;3.30;;;35.10;53.10;;;;;;4914494;29;20076;-76
2022/08/16 12:03:00;;;;;;;5.47;3.50;;;35.20;53.00;;;;;;4913460;29;20049;-75
2022/08/16 12:05:26;;;;;;;5.18;4.00;;;35.20;52.10;;;;;;4921212;29;20054;-76
2022/08/16 12:07:54;;;;;;;4.82;4.40;;;35.40;53.50;;;;;;4929969;29;20151;-76
2022/08/16 12:10:21;;;;;;;4.35;3.95;;;35.60;53.00;;;;;;4921997;29;20122;-76
2022/08/16 12:12:47;;;;;;;4.65;3.60;;;35.70;53.10;;;;;;4931588;29;20048;-75
2022/08/16 12:15:13;;;;;;;4.40;3.90;;;35.80;53.20;;;;;;4915990;29;20034;-76
2022/08/16 12:17:41;;;;;;;4.38;3.97;;;35.80;52.90;;;;;;4925834;29;20103;-77
2022/08/16 12:20:15;;;;;;;4.97;4.28;;;35.80;53.40;;;;;;4897799;29;20079;-74
2022/08/16 12:22:40;;;;;;;5.65;5.15;;;35.60;53.80;;;;;;4920352;29;20474;-75
2022/08/16 12:25:10;;;;;;;4.50;4.07;;;35.50;53.40;;;;;;4921895;29;20099;-75
2022/08/16 12:27:35;;;;;;;4.72;3.83;;;35.60;52.80;;;;;;4912040;29;20059;-75
2022/08/16 12:30:03;;;;;;;4.25;3.50;;;35.60;52.50;;;;;;4901056;29;20412;-74
2022/08/16 12:32:29;;;;;;;4.70;3.55;;;35.70;51.90;;;;;;4909218;29;20050;-74
2022/08/16 12:34:55;;;;;;;4.10;3.70;;;35.60;51.80;;;;;;4914182;29;20403;-75
2022/08/16 12:37:22;;;;;;;4.38;3.97;;;35.40;51.90;;;;;;4910110;29;20063;-75
2022/08/16 12:39:47;;;;;;;6.47;4.25;;;35.30;52.30;;;;;;4921534;29;20139;-74
2022/08/16 12:42:13;;;;;;;8.38;3.63;;;35.20;51.90;;;;;;4914848;29;20119;-74
2022/08/16 12:44:42;;;;;;;8.00;4.40;;;35.20;52.10;;;;;;4914091;29;20043;-75
2022/08/16 12:49:52;;;;;;;5.60;4.30;;;35.40;52.10;;;;;;4910268;29;20515;-74
2022/08/16 12:52:19;;;;;;;5.35;4.80;;;35.50;52.50;;;;;;4922223;29;20527;-75
2022/08/16 12:54:44;;;;;;;5.35;4.85;;;35.70;53.10;;;;;;4923758;29;20099;-75
2022/08/16 12:57:10;;;;;;;5.57;4.60;;;35.80;52.60;;;;;;4932546;29;20052;-75
2022/08/16 12:59:36;;;;;;;5.20;4.70;;;35.90;51.80;;;;;;4906252;23;20076;-81
2022/08/16 13:02:04;;;;;;;6.30;5.53;;;35.90;51.40;;;;;;4888037;29;20413;-80
2022/08/16 13:04:32;;;;;;;5.05;4.22;;;35.90;50.90;;;;;;4876807;29;20045;-80
2022/08/16 13:06:58;;;;;;;6.65;4.97;;;35.80;51.50;;;;;;4877721;29;20048;-82
2022/08/16 13:09:24;;;;;;;7.43;4.13;;;35.90;51.80;;;;;;4882479;29;20052;-80
2022/08/16 13:12:17;;;;;;;5.93;5.30;;;35.90;52.00;;;;;;4888103;29;20036;-80
2022/08/16 13:14:45;;;;;;;5.18;4.70;;;35.90;50.30;;;;;;4895840;29;20120;-80
2022/08/16 13:17:18;;;;;;;5.55;5.05;;;35.90;51.30;;;;;;4887551;29;20501;-81
2022/08/16 13:19:47;;;;;;;5.93;5.28;;;35.80;51.20;;;;;;4876379;29;20049;-80
2022/08/16 13:22:12;;;;;;;6.28;5.68;;;35.50;51.00;;;;;;4873092;29;20089;-80
2022/08/16 13:24:38;;;;;;;5.35;4.85;;;35.00;51.80;;;;;;4881056;29;20053;-80
2022/08/16 13:27:04;;;;;;;6.45;4.60;;;34.70;52.30;;;;;;4880489;29;20052;-79
2022/08/16 13:29:29;;;;;;;5.78;5.10;;;34.70;52.70;;;;;;4880630;29;20041;-79
2022/08/16 13:31:55;;;;;;;7.28;5.25;;;35.00;52.80;;;;;;4865989;29;20041;-79
2022/08/16 13:34:22;;;;;;;5.10;4.63;;;34.80;52.80;;;;;;4880598;29;20045;-79
2022/08/16 13:36:47;;;;;;;5.65;4.95;;;34.50;53.90;;;;;;4881626;29;20117;-79
2022/08/16 13:39:13;;;;;;;7.97;4.95;;;34.40;54.00;;;;;;4879949;29;20045;-79
2022/08/16 13:41:39;;;;;;;7.90;5.93;;;34.40;53.80;;;;;;4880585;29;20033;-80
2022/08/16 13:44:06;;;;;;;8.23;5.80;;;34.40;53.70;;;;;;4879473;29;20100;-80
2022/08/16 13:46:32;;;;;;;7.20;5.47;;;34.50;53.80;;;;;;4868249;29;20048;-81
2022/08/16 13:48:58;;;;;;;6.10;5.20;;;34.70;54.00;;;;;;4883889;29;20040;-79
2022/08/16 13:51:26;;;;;;;7.10;6.15;;;34.70;54.20;;;;;;4874010;29;20045;-79
2022/08/16 13:53:56;;;;;;;6.80;5.90;;;34.90;54.40;;;;;;4900160;29;20568;-79
2022/08/16 13:56:22;;;;;;;32.45;7.80;;;35.00;53.80;;;;;;4884967;29;20513;-78
2022/08/16 13:58:49;;;;;;;6.03;5.22;;;34.90;53.50;;;;;;4889324;29;20390;-78
2022/08/16 14:01:16;;;;;;;6.72;5.47;;;34.70;54.00;;;;;;4900707;29;20048;-79
2022/08/16 14:03:42;;;;;;;8.40;5.82;;;34.40;54.40;;;;;;4881285;29;20044;-78
2022/08/16 14:06:08;;;;;;;6.00;5.50;;;34.10;54.50;;;;;;4893159;29;20040;-78
2022/08/16 14:08:35;;;;;;;6.03;5.53;;;33.80;54.70;;;;;;4881038;29;20467;-78
2022/08/16 14:11:01;;;;;;;6.45;5.60;;;33.40;55.20;;;;;;4887799;29;20079;-79
2022/08/16 14:13:26;;;;;;;6.75;5.90;;;33.30;55.70;;;;;;4884357;29;20072;-79
2022/08/16 14:15:52;;;;;;;11.15;6.15;;;33.20;55.70;;;;;;4878008;29;20032;-79
2022/08/16 14:18:18;;;;;;;9.35;6.07;;;33.10;55.70;;;;;;4878412;29;20088;-79
2022/08/16 14:20:43;;;;;;;7.38;6.50;;;32.90;56.10;;;;;;4858386;29;20043;-79
2022/08/16 14:23:09;;;;;;;6.45;5.70;;;32.90;56.50;;;;;;4872844;29;20494;-78
2022/08/16 14:25:35;;;;;;;6.22;5.50;;;32.80;56.80;;;;;;4872221;29;20041;-78
2022/08/16 14:28:01;;;;;;;6.38;5.75;;;32.60;57.30;;;;;;4871507;29;20070;-78
2022/08/16 14:30:27;;;;;;;6.88;5.85;;;32.30;57.70;;;;;;4875881;29;20095;-77
2022/08/16 14:32:53;;;;;;;7.68;6.97;;;31.90;58.50;;;;;;4878676;29;20064;-77
2022/08/16 14:35:22;;;;;;;8.88;7.80;;;31.50;58.80;;;;;;4875439;29;20064;-78
2022/08/16 14:37:48;;;;;;;7.85;6.97;;;31.00;59.10;;;;;;4880453;29;20072;-79
2022/08/16 14:40:16;;;;;;;7.80;6.85;;;30.70;59.90;;;;;;4868441;29;20178;-78
2022/08/16 14:42:42;;;;;;;8.30;7.50;;;30.40;60.50;;;;;;4877781;29;20382;-78
2022/08/16 14:45:08;;;;;;;6.97;6.28;;;30.30;60.80;;;;;;4877405;29;20101;-79
2022/08/16 14:47:37;;;;;;;8.55;7.75;;;30.10;61.10;;;;;;4876238;29;20355;-78
2022/08/16 14:50:08;;;;;;;7.38;6.68;;;30.00;61.70;;;;;;4884326;29;20485;-78
2022/08/16 14:52:34;;;;;;;7.20;6.50;;;29.80;62.00;;;;;;4880123;29;20067;-78
2022/08/16 14:55:00;;;;;;;8.95;8.05;;;29.60;62.50;;;;;;4877445;29;20033;-78
2022/08/16 14:57:27;;;;;;;8.57;7.63;;;29.60;62.70;;;;;;4875987;29;20049;-78
2022/08/16 14:59:52;;;;;;;9.23;8.13;;;29.50;62.80;;;;;;4883834;29;20072;-78
2022/08/16 15:02:24;;;;;;;10.48;9.55;;;29.40;63.10;;;;;;4876432;29;20064;-78
2022/08/16 15:04:50;;;;;;;10.13;8.77;;;29.30;63.30;;;;;;4869364;29;20052;-78
2022/08/16 15:07:18;;;;;;;9.32;8.27;;;29.20;63.60;;;;;;4874584;29;20125;-78
2022/08/16 15:09:45;;;;;;;9.02;7.72;;;29.20;64.00;;;;;;4862612;29;20469;-78
2022/08/16 15:12:22;;;;;;;8.32;7.28;;;29.20;64.20;;;;;;4886726;29;20040;-78
2022/08/16 15:14:53;;;;;;;8.07;7.28;;;29.20;65.10;;;;;;4877602;29;20041;-78
2022/08/16 15:17:21;;;;;;;8.88;8.07;;;29.30;64.70;;;;;;4892759;29;20080;-79
2022/08/16 15:19:51;;;;;;;10.63;9.05;;;29.30;65.30;;;;;;4871532;29;20089;-78
2022/08/16 15:22:38;;;;;;;10.13;9.13;;;29.30;65.00;;;;;;4864192;29;20072;-79
2022/08/16 15:25:09;;;;;;;12.10;10.80;;;29.30;65.00;;;;;;4878420;29;20052;-78
2022/08/16 15:27:35;;;;;;;11.57;9.63;;;29.10;65.70;;;;;;4887987;29;20068;-78
2022/08/16 15:30:03;;;;;;;13.98;11.23;;;29.00;66.30;;;;;;4889284;29;20032;-78
2022/08/16 15:32:29;;;;;;;12.07;10.93;;;28.80;67.70;;;;;;4882593;29;20497;-78
2022/08/16 15:34:55;;;;;;;12.10;10.73;;;28.70;67.40;;;;;;4880504;29;20040;-78
2022/08/16 15:37:22;;;;;;;12.32;10.82;;;28.50;67.40;;;;;;4885436;29;20114;-78
2022/08/16 15:39:47;;;;;;;11.80;10.57;;;28.50;68.00;;;;;;4877220;29;20057;-78
2022/08/16 15:42:15;;;;;;;11.13;9.98;;;28.40;68.70;;;;;;4879579;29;20413;-77
2022/08/16 15:44:42;;;;;;;14.90;11.30;;;28.40;69.00;;;;;;4879768;29;20511;-79
2022/08/16 15:47:13;;;;;;;11.13;10.02;;;28.30;68.70;;;;;;4882972;29;20085;-80
2022/08/16 15:49:42;;;;;;;11.77;10.63;;;28.30;69.20;;;;;;4876554;29;20060;-78
2022/08/16 15:52:09;;;;;;;13.07;11.23;;;28.30;69.90;;;;;;4876224;29;20497;-79
2022/08/16 15:54:35;;;;;;;11.73;10.52;;;28.30;70.10;;;;;;4875846;29;20074;-79
2022/08/16 15:57:01;;;;;;;12.38;9.98;;;28.30;69.60;;;;;;4887291;29;20160;-80
2022/08/16 15:59:27;;;;;;;9.80;8.90;;;28.30;69.10;;;;;;4877675;29;20051;-79
2022/08/16 16:01:54;;;;;;;9.13;7.93;;;28.30;69.80;;;;;;4875555;29;20064;-80
2022/08/16 16:04:20;;;;;;;8.80;7.95;;;28.20;68.70;;;;;;4874837;29;20553;-78
2022/08/16 16:06:47;;;;;;;9.52;8.18;;;28.10;68.70;;;;;;4881977;29;20041;-80
2022/08/16 16:09:17;;;;;;;8.73;7.80;;;28.00;68.70;;;;;;4879495;29;20157;-79
2022/08/16 16:11:44;;;;;;;12.50;8.10;;;27.90;69.20;;;;;;4874599;29;20041;-79
2022/08/16 16:14:12;;;;;;;7.53;6.50;;;27.90;68.80;;;;;;4872753;29;20045;-78
2022/08/16 16:16:38;;;;;;;8.60;7.80;;;27.80;68.90;;;;;;4869218;29;20085;-77
2022/08/16 16:19:04;;;;;;;8.43;6.97;;;27.70;69.00;;;;;;4880109;29;20040;-77
2022/08/16 16:21:31;;;;;;;9.35;7.40;;;27.70;69.80;;;;;;4872178;29;20420;-77
2022/08/16 16:23:56;;;;;;;7.45;6.72;;;27.60;69.40;;;;;;4883626;29;20045;-77
2022/08/16 16:26:22;;;;;;;9.23;8.30;;;27.60;69.90;;;;;;4891078;29;20047;-77
2022/08/16 16:28:48;;;;;;;8.05;7.25;;;27.50;70.30;;;;;;4878785;29;20037;-77
2022/08/16 16:31:16;;;;;;;8.77;7.97;;;27.40;70.20;;;;;;4887382;29;20041;-77
2022/08/16 16:33:46;;;;;;;8.30;7.50;;;27.40;70.80;;;;;;4886219;29;20047;-77
2022/08/16 16:36:14;;;;;;;9.25;8.20;;;27.30;71.20;;;;;;4889996;29;20041;-77
2022/08/16 16:38:45;;;;;;;8.93;7.78;;;27.20;71.40;;;;;;4883896;29;20049;-77
2022/08/16 16:41:11;;;;;;;8.43;7.63;;;27.20;72.00;;;;;;4856792;29;20029;-77
2022/08/16 16:43:39;;;;;;;9.38;8.02;;;27.20;72.20;;;;;;4894842;29;20045;-76
2022/08/16 16:46:06;;;;;;;8.55;7.65;;;27.20;72.50;;;;;;4882085;29;20041;-77
2022/08/16 16:48:33;;;;;;;8.20;7.40;;;27.20;72.70;;;;;;4884130;29;20128;-77
2022/08/16 16:50:59;;;;;;;9.52;8.27;;;27.20;73.10;;;;;;4884644;29;20055;-79
2022/08/16 16:53:25;;;;;;;8.55;7.63;;;27.20;73.30;;;;;;4872202;29;20048;-78
2022/08/16 16:55:51;;;;;;;10.00;7.97;;;27.20;73.10;;;;;;4878667;29;20047;-77
2022/08/16 17:01:04;;;;;;;9.68;7.90;;;27.20;73.70;;;;;;4883617;29;20127;-77
2022/08/16 17:03:30;;;;;;;10.07;7.22;;;27.20;73.10;;;;;;4873526;29;20059;-77
2022/08/16 17:05:56;;;;;;;8.68;7.38;;;27.10;73.30;;;;;;4879764;29;20049;-78
2022/08/16 17:08:23;;;;;;;9.32;7.85;;;27.00;73.40;;;;;;4877572;29;20387;-78
2022/08/16 17:10:52;;;;;;;9.23;7.38;;;26.90;73.20;;;;;;4886607;29;20037;-78
2022/08/16 17:13:21;;;;;;;8.68;7.78;;;26.70;73.30;;;;;;4887472;29;20060;-78
2022/08/16 17:15:47;;;;;;;8.63;7.22;;;26.60;73.70;;;;;;4879827;29;20510;-78
2022/08/16 17:18:13;;;;;;;7.60;6.78;;;26.40;74.50;;;;;;4879064;29;20056;-78
2022/08/16 17:20:39;;;;;;;8.10;7.30;;;26.20;74.80;;;;;;4878938;29;20048;-78
2022/08/16 17:23:05;;;;;;;9.93;7.82;;;26.00;75.10;;;;;;4887547;29;20047;-78
2022/08/16 17:25:32;;;;;;;9.07;7.75;;;25.90;75.50;;;;;;4879610;29;20069;-78
2022/08/16 17:27:57;;;;;;;11.05;8.07;;;25.70;76.10;;;;;;4879240;29;20045;-78
2022/08/16 17:30:28;;;;;;;8.07;7.28;;;25.60;76.50;;;;;;4878772;29;20037;-78
2022/08/16 17:32:58;;;;;;;8.80;8.00;;;25.40;77.30;;;;;;4888818;29;20099;-78
2022/08/16 17:35:44;;;;;;;9.57;8.68;;;25.30;78.10;;;;;;4882852;29;20041;-78
2022/08/16 17:38:10;;;;;;;11.07;9.07;;;25.20;79.50;;;;;;4871222;29;20543;-78
2022/08/16 17:40:43;;;;;;;10.82;9.45;;;25.10;79.90;;;;;;4886882;29;20494;-78
2022/08/16 17:43:17;;;;;;;11.00;9.38;;;25.10;80.70;;;;;;4897089;29;20040;-78
2022/08/16 17:45:44;;;;;;;10.73;9.73;;;25.00;81.80;;;;;;4897305;29;20402;-78
2022/08/16 17:48:10;;;;;;;12.50;11.20;;;25.00;82.60;;;;;;4893088;29;20048;-78
2022/08/16 17:50:37;;;;;;;12.57;11.38;;;24.90;83.60;;;;;;4886109;29;20077;-78
2022/08/16 17:53:04;;;;;;;12.20;11.00;;;24.90;84.90;;;;;;4882576;29;20040;-78
2022/08/16 17:55:36;;;;;;;13.18;11.98;;;24.90;85.80;;;;;;4863115;29;20133;-78
2022/08/16 17:58:03;;;;;;;13.45;12.15;;;24.90;86.60;;;;;;4882713;29;20041;-79
2022/08/16 18:00:30;;;;;;;11.82;10.73;;;24.80;87.30;;;;;;4888420;29;20059;-79
2022/08/16 18:02:57;;;;;;;11.80;10.63;;;24.80;87.80;;;;;;4861936;29;20044;-79
2022/08/16 18:05:28;;;;;;;11.20;10.18;;;24.80;88.70;;;;;;4877024;29;20542;-78
2022/08/16 18:07:54;;;;;;;13.40;12.15;;;24.70;89.10;;;;;;4881314;29;20072;-78
2022/08/16 18:10:21;;;;;;;13.82;12.38;;;24.70;89.80;;;;;;4886770;29;20494;-78
2022/08/16 18:12:52;;;;;;;13.32;12.10;;;24.60;90.10;;;;;;4878745;29;20041;-78
2022/08/16 18:15:19;;;;;;;13.18;11.90;;;24.60;90.10;;;;;;4880909;29;20047;-78
2022/08/16 18:17:45;;;;;;;13.98;12.68;;;24.50;90.60;;;;;;4885897;29;20056;-78
2022/08/16 18:22:16;;;;;;;13.27;11.93;;;24.40;90.70;;;;;;4885590;29;20041;-78
2022/08/16 18:23:11;;;;;;;12.68;11.45;;;24.30;91.10;;;;;;4888325;29;20054;-78
2022/08/16 18:25:43;;;;;;;13.93;12.40;;;24.20;92.10;;;;;;4878732;29;20510;-78
2022/08/16 18:28:08;;;;;;;13.57;11.18;;;24.00;92.60;;;;;;4876427;29;20151;-77
2022/08/16 18:30:34;;;;;;;13.18;11.90;;;23.90;93.40;;;;;;4885882;29;20177;-77
2022/08/16 18:33:00;;;;;;;14.77;11.13;;;23.80;94.10;;;;;;4896521;29;20044;-77
2022/08/16 18:35:25;;;;;;;12.65;11.52;;;23.60;94.70;;;;;;4873856;29;20119;-77
2022/08/16 18:37:51;;;;;;;17.75;12.38;;;23.50;95.50;;;;;;4882427;29;20104;-77
2022/08/16 18:40:17;;;;;;;14.40;12.35;;;23.30;96.60;;;;;;4884730;29;20363;-77
2022/08/16 18:42:55;;;;;;;14.57;13.20;;;23.20;97.20;;;;;;4887791;29;20052;-77
2022/08/16 18:45:21;;;;;;;14.07;12.75;;;23.10;97.90;;;;;;4875306;29;20032;-78
2022/08/16 18:47:46;;;;;;;14.93;13.52;;;22.90;98.70;;;;;;4877872;29;20045;-77
2022/08/16 18:50:12;;;;;;;14.70;13.20;;;22.70;99.10;;;;;;4877959;29;20036;-77
2022/08/16 18:52:47;;;;;;;16.92;15.13;;;22.60;99.70;;;;;;4887131;29;20467;-79
2022/08/16 18:55:12;;;;;;;15.10;13.73;;;22.50;99.90;;;;;;4878314;29;20101;-77
2022/08/16 18:57:41;;;;;;;15.93;14.43;;;22.30;99.90;;;;;;4877523;29;20143;-79
2022/08/16 19:00:11;;;;;;;16.90;15.13;;;22.20;99.90;;;;;;4861501;29;20513;-77
2022/08/16 19:02:39;;;;;;;15.00;13.70;;;22.10;99.90;;;;;;4861656;29;20049;-76
2022/08/16 19:05:06;;;;;;;15.73;14.25;;;22.00;99.90;;;;;;4874616;29;20080;-76
2022/08/16 19:07:31;;;;;;;15.40;14.00;;;21.80;99.90;;;;;;4876649;29;20041;-77
2022/08/16 19:10:02;;;;;;;16.55;15.15;;;21.70;99.90;;;;;;4865063;29;20121;-76
2022/08/16 19:12:29;;;;;;;13.95;12.75;;;21.70;99.90;;;;;;4873820;29;20049;-77
2022/08/16 19:14:56;;;;;;;14.70;13.30;;;21.50;99.90;;;;;;4882587;29;20044;-78